Time;durP1;ratioP1;P1;durP2;ratioP2;P2;SDS_P1;SDS_P2;PMS_P1;PMS_P2;Temp;Humidity;BMP_temperature;BMP_pressure;BME280_temperature;BME280_humidity;BME280_pressure;Samples;Min_cycle;Max_cycle;Signal;HPM_P1;HPM_P2
2022/01/20 00:00:29;;;;;;;19.58;2.67;;;3.80;99.90;;;;;;5104170;28;20052;-66
2022/01/20 00:03:00;;;;;;;17.33;2.63;;;3.80;99.90;;;;;;5126007;28;20040;-66
2022/01/20 00:08:17;;;;;;;17.70;2.28;;;3.80;99.90;;;;;;5127595;28;20047;-66
2022/01/20 00:27:13;;;;;;;13.20;2.20;;;4.10;99.90;;;;;;5126437;28;20059;-66
2022/01/20 00:32:32;;;;;;;12.85;2.00;;;4.10;99.90;;;;;;5127074;28;20093;-66
2022/01/20 00:37:27;;;;;;;16.08;2.50;;;4.10;99.90;;;;;;5112109;28;20083;-66
2022/01/20 00:39:54;;;;;;;15.75;2.75;;;4.10;99.90;;;;;;5126772;28;20118;-66
2022/01/20 00:42:20;;;;;;;14.45;3.33;;;4.10;99.90;;;;;;5127194;28;20089;-66
2022/01/20 00:44:46;;;;;;;17.08;2.88;;;4.10;99.90;;;;;;5107998;28;20059;-66
2022/01/20 00:47:13;;;;;;;13.20;2.03;;;4.10;99.90;;;;;;5110719;28;20051;-66
2022/01/20 00:49:39;;;;;;;11.65;2.08;;;4.10;99.90;;;;;;5106424;28;20553;-66
2022/01/20 00:52:06;;;;;;;15.18;2.13;;;4.00;99.90;;;;;;5106356;28;20110;-66
2022/01/20 00:54:32;;;;;;;13.73;2.92;;;4.00;99.90;;;;;;5106212;28;20435;-66
2022/01/20 00:56:58;;;;;;;13.23;2.22;;;3.90;99.90;;;;;;5111724;28;20051;-66
2022/01/20 00:59:25;;;;;;;16.25;2.08;;;3.90;99.90;;;;;;5108298;28;20130;-66
2022/01/20 01:01:52;;;;;;;11.40;1.98;;;3.80;99.90;;;;;;5102957;28;20055;-66
2022/01/20 01:04:18;;;;;;;10.23;1.75;;;3.70;99.90;;;;;;5087865;28;20082;-66
2022/01/20 01:07:37;;;;;;;20.38;2.50;;;3.60;99.90;;;;;;5105724;28;20048;-66
2022/01/20 01:09:38;;;;;;;14.68;2.72;;;3.60;99.90;;;;;;5085780;28;20056;-66
2022/01/20 01:12:06;;;;;;;15.20;2.63;;;3.60;99.90;;;;;;5106246;28;20040;-66
2022/01/20 01:14:34;;;;;;;14.25;2.45;;;3.50;99.90;;;;;;5087460;28;20137;-66
2022/01/20 01:20:07;;;;;;;11.85;1.52;;;3.50;99.90;;;;;;5087503;28;20052;-66
2022/01/20 01:22:30;;;;;;;14.38;2.05;;;3.60;99.90;;;;;;5108134;28;20052;-66
2022/01/20 01:24:57;;;;;;;9.85;2.38;;;3.60;99.90;;;;;;5107953;28;20075;-66
2022/01/20 01:27:26;;;;;;;22.70;3.80;;;3.60;99.90;;;;;;5125727;28;20073;-66
2022/01/20 01:32:29;;;;;;;14.23;2.35;;;3.60;99.90;;;;;;5085273;28;20610;-66
2022/01/20 01:34:55;;;;;;;16.63;2.55;;;3.70;99.90;;;;;;5086900;28;20080;-66
2022/01/20 01:39:59;;;;;;;14.60;2.45;;;3.80;99.90;;;;;;5104898;28;20499;-66
2022/01/20 01:42:32;;;;;;;15.50;2.58;;;4.00;99.90;;;;;;5085038;28;20057;-66
2022/01/20 01:45:09;;;;;;;19.80;2.40;;;4.10;99.90;;;;;;5089280;28;20052;-66
2022/01/20 01:47:35;;;;;;;15.02;2.10;;;4.30;99.90;;;;;;5124720;28;20054;-66
2022/01/20 01:50:01;;;;;;;13.45;1.80;;;4.30;99.90;;;;;;5125672;28;20039;-65
2022/01/20 01:52:27;;;;;;;12.77;1.80;;;4.50;99.90;;;;;;5106898;28;20043;-65
2022/01/20 01:54:53;;;;;;;11.43;2.00;;;4.40;99.90;;;;;;5106969;28;20126;-66
2022/01/20 01:57:18;;;;;;;15.48;2.33;;;4.30;99.90;;;;;;5106706;28;20104;-65
2022/01/20 01:59:44;;;;;;;13.55;2.00;;;4.10;99.90;;;;;;5125877;28;20050;-65
2022/01/20 02:02:10;;;;;;;10.77;1.60;;;4.10;99.90;;;;;;5106932;28;20419;-66
2022/01/20 02:04:36;;;;;;;10.07;1.42;;;4.10;99.90;;;;;;5107827;28;20093;-66
2022/01/20 02:18:12;;;;;;;5.05;1.20;;;3.60;99.90;;;;;;5106333;28;20055;-66
2022/01/20 02:20:38;;;;;;;9.43;1.30;;;3.60;99.90;;;;;;5138497;27;20056;-66
2022/01/20 02:23:05;;;;;;;7.82;1.73;;;3.60;99.90;;;;;;5107464;28;20043;-66
2022/01/20 02:25:35;;;;;;;7.43;1.52;;;3.60;99.90;;;;;;5089905;28;20096;-65
2022/01/20 02:28:02;;;;;;;;;;;3.70;99.90;;;;;;5107130;28;20464;-65
2022/01/20 02:30:29;;;;;;;11.07;1.52;;;3.70;99.90;;;;;;5103414;28;19916;-66
2022/01/20 02:32:59;;;;;;;10.55;1.77;;;3.80;99.90;;;;;;5107168;28;20039;-66
2022/01/20 02:35:27;;;;;;;5.00;1.30;;;3.90;99.90;;;;;;5124595;28;20112;-66
2022/01/20 02:38:11;;;;;;;6.43;1.40;;;4.20;99.90;;;;;;5125254;28;20119;-66
2022/01/20 02:45:50;;;;;;;10.15;1.77;;;4.20;99.90;;;;;;5099566;28;20085;-66
2022/01/20 02:48:16;;;;;;;11.20;2.35;;;4.10;99.90;;;;;;5103342;28;20103;-66
2022/01/20 02:50:41;;;;;;;8.25;1.27;;;4.20;99.90;;;;;;5106437;28;20098;-66
2022/01/20 02:53:07;;;;;;;6.57;1.20;;;4.30;99.90;;;;;;5116884;28;20097;-66
2022/01/20 02:55:33;;;;;;;11.55;2.45;;;4.60;99.90;;;;;;5105752;28;20104;-66
2022/01/20 02:57:59;;;;;;;12.07;1.65;;;4.70;99.90;;;;;;5081811;28;20163;-66
2022/01/20 03:00:25;;;;;;;6.32;1.60;;;4.80;99.90;;;;;;5137700;28;20428;-66
2022/01/20 03:02:51;;;;;;;13.57;2.30;;;4.60;99.90;;;;;;5105541;28;20036;-66
2022/01/20 03:05:16;;;;;;;14.73;1.85;;;4.50;99.90;;;;;;5141032;28;20450;-66
2022/01/20 03:07:43;;;;;;;18.25;2.70;;;4.40;99.90;;;;;;5122600;28;20036;-66
2022/01/20 03:10:09;;;;;;;11.70;2.20;;;4.20;99.90;;;;;;5104774;28;20052;-66
2022/01/20 03:12:34;;;;;;;11.90;2.03;;;4.20;99.90;;;;;;5108588;28;20135;-66
2022/01/20 03:15:01;;;;;;;12.63;2.35;;;4.00;99.90;;;;;;5121976;28;20043;-66
2022/01/20 03:17:27;;;;;;;17.85;2.25;;;4.10;99.90;;;;;;5143863;27;20040;-66
2022/01/20 03:19:52;;;;;;;19.75;3.05;;;4.00;99.90;;;;;;5115286;28;20083;-66
2022/01/20 03:22:18;;;;;;;16.65;2.63;;;4.00;99.90;;;;;;5108115;28;20050;-66
2022/01/20 03:24:44;;;;;;;15.40;2.38;;;4.00;99.90;;;;;;5110018;28;20077;-66
2022/01/20 03:27:09;;;;;;;14.88;2.92;;;4.00;99.90;;;;;;5122428;28;20075;-66
2022/01/20 03:29:36;;;;;;;14.80;2.50;;;4.00;99.90;;;;;;5126989;28;20047;-66
2022/01/20 03:32:02;;;;;;;14.32;2.53;;;4.00;99.90;;;;;;5107548;28;20092;-66
2022/01/20 03:34:28;;;;;;;15.40;3.22;;;4.10;99.90;;;;;;5107668;28;20047;-66
2022/01/20 03:36:54;;;;;;;19.05;2.78;;;4.10;99.90;;;;;;5109845;28;20392;-66
2022/01/20 03:39:20;;;;;;;20.58;2.88;;;4.10;99.90;;;;;;5128023;28;20101;-65
2022/01/20 03:41:46;;;;;;;15.90;2.30;;;4.30;99.90;;;;;;5121099;28;20052;-66
2022/01/20 03:44:12;;;;;;;18.33;2.67;;;4.40;99.90;;;;;;5121062;28;20127;-66
2022/01/20 03:46:39;;;;;;;15.45;2.88;;;4.50;99.90;;;;;;5109073;28;20145;-66
2022/01/20 03:49:11;;;;;;;15.25;3.22;;;4.60;99.90;;;;;;5120070;28;20040;-66
2022/01/20 03:51:37;;;;;;;16.70;2.75;;;4.70;99.90;;;;;;5109065;28;20086;-66
2022/01/20 03:54:06;;;;;;;18.25;3.42;;;4.70;99.90;;;;;;5108185;28;20043;-66
2022/01/20 03:56:32;;;;;;;18.38;3.00;;;4.70;99.90;;;;;;5120316;28;20062;-66
2022/01/20 03:58:58;;;;;;;15.98;3.30;;;4.60;99.90;;;;;;5109297;28;20039;-66
2022/01/20 04:01:23;;;;;;;23.00;3.67;;;4.70;99.90;;;;;;5111660;28;20035;-66
2022/01/20 04:03:49;;;;;;;15.07;2.55;;;4.70;99.90;;;;;;5107989;28;20044;-65
2022/01/20 04:06:16;;;;;;;21.40;3.30;;;4.70;99.90;;;;;;5123802;28;20747;-65
2022/01/20 04:08:44;;;;;;;18.65;3.20;;;4.30;99.90;;;;;;5142316;27;20043;-66
2022/01/20 04:11:17;;;;;;;22.48;3.40;;;4.40;99.90;;;;;;5142959;27;20057;-66
2022/01/20 04:13:43;;;;;;;19.83;4.13;;;4.40;99.90;;;;;;5103647;28;20097;-66
2022/01/20 04:16:52;;;;;;;16.00;3.28;;;4.50;99.90;;;;;;5108311;28;20051;-66
2022/01/20 04:19:18;;;;;;;17.05;2.78;;;4.60;99.90;;;;;;5103771;28;20117;-66
2022/01/20 04:21:44;;;;;;;13.65;2.17;;;4.50;99.90;;;;;;5113896;28;20059;-66
2022/01/20 04:24:10;;;;;;;12.48;2.70;;;4.70;99.90;;;;;;5105172;28;20079;-65
2022/01/20 04:26:38;;;;;;;12.48;2.08;;;4.70;99.90;;;;;;5119181;28;20048;-66
2022/01/20 04:29:06;;;;;;;10.55;2.15;;;4.70;99.90;;;;;;5116501;28;20046;-66
2022/01/20 04:31:33;;;;;;;11.50;2.53;;;4.50;99.90;;;;;;5119699;28;20071;-65
2022/01/20 04:34:02;;;;;;;6.10;1.60;;;4.60;99.90;;;;;;5107598;28;20044;-66
2022/01/20 04:36:31;;;;;;;12.52;2.33;;;4.50;99.90;;;;;;5126686;28;20039;-66
2022/01/20 04:38:59;;;;;;;10.55;2.15;;;4.50;99.90;;;;;;5149637;27;20051;-66
2022/01/20 04:41:29;;;;;;;15.88;2.30;;;4.50;99.90;;;;;;5112619;28;20043;-66
2022/01/20 04:43:54;;;;;;;11.50;2.00;;;4.40;99.90;;;;;;5120027;28;20044;-66
2022/01/20 04:46:33;;;;;;;13.88;3.08;;;4.20;99.90;;;;;;5119201;28;20061;-66
2022/01/20 04:57:03;;;;;;;13.02;2.40;;;4.20;99.90;;;;;;5153625;27;20052;-66
2022/01/20 04:57:24;;;;;;;8.82;2.13;;;4.00;99.90;;;;;;5113493;28;20058;-66
2022/01/20 04:59:52;;;;;;;15.25;2.30;;;4.10;99.90;;;;;;5114930;28;20043;-66
2022/01/20 05:02:19;;;;;;;9.73;1.67;;;4.00;99.90;;;;;;5121191;28;20139;-66
2022/01/20 05:04:45;;;;;;;14.43;2.47;;;4.30;99.90;;;;;;5106516;28;20048;-66
2022/01/20 05:07:18;;;;;;;7.72;1.73;;;4.30;99.90;;;;;;5107763;28;20051;-66
2022/01/20 05:09:44;;;;;;;13.90;4.20;;;4.20;99.90;;;;;;5124820;28;20036;-66
2022/01/20 05:12:13;;;;;;;11.90;1.80;;;4.30;99.90;;;;;;5118991;28;20111;-66
2022/01/20 05:14:39;;;;;;;14.27;2.70;;;4.40;99.90;;;;;;5125751;28;20106;-66
2022/01/20 05:17:05;;;;;;;10.25;1.98;;;4.20;99.90;;;;;;5099986;28;20052;-66
2022/01/20 05:19:31;;;;;;;16.20;2.58;;;4.30;99.90;;;;;;5107635;28;20134;-66
2022/01/20 05:21:59;;;;;;;9.88;1.95;;;4.00;99.90;;;;;;5107833;28;20050;-66
2022/01/20 05:24:25;;;;;;;9.90;2.38;;;4.00;99.90;;;;;;5125773;28;20046;-66
2022/01/20 05:26:51;;;;;;;10.45;2.45;;;4.10;99.90;;;;;;5125632;28;20054;-66
2022/01/20 05:29:18;;;;;;;7.45;2.08;;;4.20;99.90;;;;;;5107529;28;20048;-66
2022/01/20 05:31:44;;;;;;;13.10;2.05;;;4.30;99.90;;;;;;5116202;28;20054;-70
2022/01/20 05:34:10;;;;;;;10.52;1.80;;;4.40;99.90;;;;;;5097971;28;20047;-66
2022/01/20 05:36:36;;;;;;;25.55;3.85;;;4.50;99.90;;;;;;5140514;27;20052;-67
2022/01/20 05:39:03;;;;;;;9.73;2.92;;;4.20;99.90;;;;;;5123623;28;20058;-66
2022/01/20 05:41:29;;;;;;;9.75;1.85;;;4.10;99.90;;;;;;5103988;27;20039;-67
2022/01/20 05:43:56;;;;;;;11.90;2.20;;;3.90;99.90;;;;;;5098318;28;20055;-68
2022/01/20 05:46:25;;;;;;;12.43;2.55;;;4.00;99.90;;;;;;5093415;28;20114;-65
2022/01/20 05:48:50;;;;;;;9.32;1.60;;;3.80;99.90;;;;;;5125679;27;20063;-66
2022/01/20 05:51:18;;;;;;;6.22;1.60;;;3.60;99.90;;;;;;5099289;28;20040;-66
2022/01/20 05:53:44;;;;;;;7.47;1.75;;;3.60;99.90;;;;;;5106939;27;20516;-65
2022/01/20 05:56:09;;;;;;;7.80;1.60;;;3.40;99.90;;;;;;5098912;28;20057;-66
2022/01/20 05:58:37;;;;;;;9.80;2.15;;;3.30;99.90;;;;;;5123919;27;20061;-66
2022/01/20 06:01:07;;;;;;;6.63;2.05;;;3.30;99.90;;;;;;5133453;27;20043;-66
2022/01/20 06:03:36;;;;;;;9.68;1.58;;;3.20;99.90;;;;;;5123875;27;20051;-66
2022/01/20 06:06:11;;;;;;;12.23;2.13;;;3.30;99.90;;;;;;5132732;27;20126;-67
2022/01/20 06:08:41;;;;;;;6.53;1.30;;;3.20;99.90;;;;;;5104548;28;20055;-67
2022/01/20 06:11:09;;;;;;;6.53;2.28;;;3.20;99.90;;;;;;5117969;28;20111;-67
2022/01/20 06:13:34;;;;;;;10.10;1.52;;;3.20;99.90;;;;;;5104021;28;20044;-65
2022/01/20 06:16:01;;;;;;;5.97;1.50;;;3.10;99.90;;;;;;5098419;28;20047;-68
2022/01/20 06:18:27;;;;;;;9.77;2.17;;;3.00;99.90;;;;;;5121476;28;20044;-66
2022/01/20 06:20:53;;;;;;;8.85;1.92;;;3.00;99.90;;;;;;5114818;28;20039;-67
2022/01/20 06:23:19;;;;;;;9.35;2.55;;;3.00;99.90;;;;;;5101042;28;20055;-67
2022/01/20 06:25:46;;;;;;;16.88;2.40;;;2.90;99.90;;;;;;5099597;28;20055;-67
2022/01/20 06:28:13;;;;;;;17.17;2.38;;;2.80;99.90;;;;;;5122771;27;20043;-67
2022/01/20 06:30:39;;;;;;;19.08;3.50;;;2.90;99.90;;;;;;5130892;28;20067;-67
2022/01/20 06:33:05;;;;;;;9.98;2.13;;;2.90;99.90;;;;;;5079426;28;20055;-66
2022/01/20 06:35:33;;;;;;;10.70;2.08;;;2.90;99.90;;;;;;5110276;27;20058;-67
2022/01/20 06:37:59;;;;;;;15.00;2.65;;;3.00;99.90;;;;;;5121250;27;20689;-67
2022/01/20 06:40:25;;;;;;;15.02;2.70;;;3.00;99.90;;;;;;5131577;28;20425;-67
2022/01/20 06:42:51;;;;;;;13.18;2.28;;;3.10;99.90;;;;;;5116788;27;20047;-67
2022/01/20 06:45:18;;;;;;;12.57;2.50;;;3.10;99.90;;;;;;5107031;28;20065;-66
2022/01/20 06:47:44;;;;;;;7.90;1.83;;;3.00;99.90;;;;;;5117649;27;20122;-67
2022/01/20 06:50:11;;;;;;;16.73;3.55;;;2.90;99.90;;;;;;5109006;28;20079;-67
2022/01/20 06:52:38;;;;;;;15.75;3.00;;;2.90;99.90;;;;;;5095405;27;20123;-66
2022/01/20 06:55:07;;;;;;;14.70;2.63;;;2.90;99.90;;;;;;5110510;28;20048;-66
2022/01/20 06:57:37;;;;;;;12.63;2.95;;;2.90;99.90;;;;;;5097669;27;20043;-66
2022/01/20 07:00:08;;;;;;;16.02;2.72;;;2.80;99.90;;;;;;5110509;28;20051;-66
2022/01/20 07:02:34;;;;;;;13.57;2.42;;;2.90;99.90;;;;;;5120770;27;20054;-65
2022/01/20 07:05:00;;;;;;;17.55;3.25;;;3.30;99.90;;;;;;5111986;28;20570;-65
2022/01/20 07:07:25;;;;;;;19.45;2.63;;;3.50;99.90;;;;;;5124086;27;20043;-65
2022/01/20 07:09:51;;;;;;;19.75;3.10;;;3.30;99.90;;;;;;5130207;27;20106;-65
2022/01/20 07:12:17;;;;;;;15.23;2.53;;;2.90;99.90;;;;;;5113132;27;20112;-65
2022/01/20 07:14:43;;;;;;;12.63;2.53;;;2.90;99.90;;;;;;5114922;28;20131;-65
2022/01/20 07:17:08;;;;;;;12.05;2.42;;;3.00;99.90;;;;;;5128912;27;20062;-65
2022/01/20 07:19:34;;;;;;;15.77;2.28;;;2.90;99.90;;;;;;5132626;27;20063;-65
2022/01/20 07:22:00;;;;;;;9.93;1.77;;;2.80;99.90;;;;;;5111562;27;20042;-65
2022/01/20 07:24:27;;;;;;;12.23;2.00;;;2.80;99.90;;;;;;5118651;27;20373;-65
2022/01/20 07:26:53;;;;;;;16.33;3.08;;;2.80;99.90;;;;;;5091698;27;20061;-66
2022/01/20 07:29:19;;;;;;;12.50;2.90;;;2.80;99.90;;;;;;5134179;27;20043;-61
2022/01/20 07:31:45;;;;;;;14.15;2.03;;;2.70;99.90;;;;;;5100020;28;20105;-62
2022/01/20 07:34:11;;;;;;;15.25;2.70;;;2.70;99.90;;;;;;5086841;27;20075;-63
2022/01/20 07:36:37;;;;;;;11.05;2.70;;;2.60;99.90;;;;;;5099897;28;20050;-62
2022/01/20 07:39:03;;;;;;;11.02;2.65;;;2.70;99.90;;;;;;5126515;27;20110;-62
2022/01/20 07:41:29;;;;;;;19.75;3.30;;;2.70;99.90;;;;;;5120672;28;20048;-62
2022/01/20 07:43:55;;;;;;;19.02;2.88;;;2.60;99.90;;;;;;5102554;27;20043;-62
2022/01/20 07:46:20;;;;;;;13.07;2.90;;;2.60;99.90;;;;;;5102204;28;20051;-62
2022/01/20 07:48:46;;;;;;;14.23;2.53;;;2.70;99.90;;;;;;5105839;27;20355;-63
2022/01/20 07:51:12;;;;;;;12.02;3.15;;;2.90;99.90;;;;;;5101330;28;20044;-62
2022/01/20 07:53:38;;;;;;;10.25;2.40;;;2.90;99.90;;;;;;5105809;27;20065;-62
2022/01/20 07:56:05;;;;;;;10.00;2.00;;;3.00;99.90;;;;;;5101511;28;20036;-63
2022/01/20 07:58:35;;;;;;;8.13;1.52;;;3.00;99.90;;;;;;5103118;27;20556;-63
2022/01/20 08:01:01;;;;;;;15.10;2.65;;;2.90;99.90;;;;;;5120446;27;20129;-63
2022/01/20 08:03:27;;;;;;;11.52;2.50;;;2.80;99.90;;;;;;5106558;27;20099;-63
2022/01/20 08:05:53;;;;;;;10.65;2.50;;;2.80;99.90;;;;;;5103704;28;20296;-63
2022/01/20 08:08:18;;;;;;;11.40;2.08;;;2.90;99.90;;;;;;5100342;27;20043;-63
2022/01/20 08:10:44;;;;;;;11.35;2.33;;;3.00;99.90;;;;;;5105212;28;20134;-63
2022/01/20 08:13:10;;;;;;;14.20;2.95;;;3.10;99.90;;;;;;5099837;27;20055;-63
2022/01/20 08:15:36;;;;;;;7.82;1.77;;;3.20;99.90;;;;;;5106378;28;20474;-64
2022/01/20 08:18:02;;;;;;;15.52;1.85;;;3.40;99.90;;;;;;5113145;27;20105;-62
2022/01/20 08:20:28;;;;;;;7.45;1.40;;;3.70;99.90;;;;;;5127647;27;20035;-63
2022/01/20 08:22:54;;;;;;;7.57;1.30;;;3.80;99.90;;;;;;5097447;27;20043;-63
2022/01/20 08:25:20;;;;;;;6.45;1.30;;;3.70;99.90;;;;;;5108445;28;20248;-63
2022/01/20 08:27:47;;;;;;;11.95;1.60;;;3.50;99.90;;;;;;5096267;27;20499;-63
2022/01/20 08:30:15;;;;;;;5.97;1.50;;;3.50;99.90;;;;;;5110729;28;20091;-64
2022/01/20 08:32:42;;;;;;;12.00;1.70;;;3.40;99.90;;;;;;5094429;27;20055;-63
2022/01/20 08:35:09;;;;;;;14.55;1.73;;;3.10;99.90;;;;;;5087550;28;20070;-63
2022/01/20 08:37:37;;;;;;;17.02;2.90;;;3.20;99.90;;;;;;5092898;27;20315;-63
2022/01/20 08:40:05;;;;;;;19.33;2.95;;;2.90;99.90;;;;;;5094375;28;20078;-62
2022/01/20 08:42:31;;;;;;;14.52;2.88;;;2.80;99.90;;;;;;5111655;27;20051;-63
2022/01/20 08:44:57;;;;;;;13.88;2.42;;;2.70;99.90;;;;;;5131977;27;20044;-62
2022/01/20 08:47:23;;;;;;;10.95;2.03;;;2.60;99.90;;;;;;5093585;27;20113;-62
2022/01/20 08:49:50;;;;;;;10.15;2.40;;;2.60;99.90;;;;;;5113848;28;20075;-63
2022/01/20 08:52:17;;;;;;;13.95;3.10;;;2.60;99.90;;;;;;5107711;27;20693;-63
2022/01/20 08:54:45;;;;;;;14.85;3.00;;;2.60;99.90;;;;;;5106768;28;20043;-62
2022/01/20 08:57:11;;;;;;;15.88;2.72;;;2.70;99.90;;;;;;5089770;27;20048;-63
2022/01/20 08:59:40;;;;;;;13.05;3.55;;;2.70;99.90;;;;;;5132291;27;20035;-62
2022/01/20 09:02:06;;;;;;;13.85;2.70;;;2.70;99.90;;;;;;5115609;27;20539;-63
2022/01/20 09:04:33;;;;;;;13.10;2.85;;;2.90;99.90;;;;;;5110299;28;20081;-62
2022/01/20 09:06:59;;;;;;;15.60;2.55;;;2.90;99.90;;;;;;5119051;28;20108;-63
2022/01/20 09:09:24;;;;;;;12.80;2.40;;;3.00;99.90;;;;;;5125335;27;20118;-62
2022/01/20 09:12:15;;;;;;;14.77;2.63;;;3.10;99.90;;;;;;5100964;28;20051;-62
2022/01/20 09:17:21;;;;;;;17.33;3.15;;;3.20;99.90;;;;;;5108744;27;20054;-62
2022/01/20 09:19:47;;;;;;;8.85;1.33;;;3.60;99.90;;;;;;5113413;28;20090;-63
2022/01/20 09:22:13;;;;;;;5.30;1.30;;;4.00;99.90;;;;;;5092875;28;20372;-63
2022/01/20 09:24:38;;;;;;;7.20;1.45;;;4.20;99.90;;;;;;5114232;28;20047;-62
2022/01/20 09:27:05;;;;;;;7.85;2.08;;;4.10;99.90;;;;;;5098006;28;20043;-62
2022/01/20 09:29:31;;;;;;;8.77;1.70;;;3.60;99.90;;;;;;5082017;28;20061;-63
2022/01/20 09:31:56;;;;;;;4.82;1.38;;;3.50;99.90;;;;;;5097804;28;20500;-63
2022/01/20 09:34:24;;;;;;;4.95;1.83;;;3.20;99.90;;;;;;5107209;27;20072;-63
2022/01/20 09:36:50;;;;;;;8.32;1.50;;;3.10;99.90;;;;;;5094228;28;20052;-63
2022/01/20 09:39:16;;;;;;;4.97;1.30;;;3.20;99.90;;;;;;5117167;27;20066;-62
2022/01/20 09:41:44;;;;;;;5.53;1.95;;;3.20;99.90;;;;;;5098026;28;20443;-62
2022/01/20 09:44:10;;;;;;;9.50;1.63;;;3.40;99.90;;;;;;5102612;27;20112;-63
2022/01/20 09:46:35;;;;;;;11.15;1.83;;;3.50;99.90;;;;;;5116961;28;20055;-63
2022/01/20 09:49:01;;;;;;;7.35;1.98;;;3.60;99.90;;;;;;5103374;27;20039;-63
2022/01/20 09:51:27;;;;;;;12.90;2.65;;;3.50;99.90;;;;;;5100024;28;20039;-63
2022/01/20 09:53:53;;;;;;;6.00;1.23;;;3.60;99.90;;;;;;5101729;27;20039;-63
2022/01/20 09:56:19;;;;;;;6.15;1.70;;;3.40;99.90;;;;;;5121687;28;20046;-63
2022/01/20 09:58:45;;;;;;;10.85;1.60;;;3.40;99.90;;;;;;5117516;27;20747;-62
2022/01/20 10:01:11;;;;;;;7.22;1.75;;;3.30;99.90;;;;;;5102474;28;20589;-62
2022/01/20 10:03:38;;;;;;;7.65;1.42;;;3.20;99.90;;;;;;5112245;27;20035;-62
2022/01/20 10:06:05;;;;;;;8.40;1.80;;;3.20;99.90;;;;;;5106240;28;20047;-62
2022/01/20 10:08:35;;;;;;;11.48;1.85;;;3.20;99.90;;;;;;5112160;27;20048;-62
2022/01/20 10:11:09;;;;;;;13.35;1.75;;;3.20;99.90;;;;;;5127050;27;20055;-62
2022/01/20 10:13:41;;;;;;;12.18;2.20;;;3.30;99.90;;;;;;5097545;28;20600;-62
2022/01/20 10:16:17;;;;;;;12.73;2.05;;;3.30;99.90;;;;;;5102623;28;20328;-62
2022/01/20 10:18:54;;;;;;;7.05;1.80;;;3.50;99.90;;;;;;5094820;28;20047;-63
2022/01/20 10:21:28;;;;;;;9.98;1.60;;;3.60;99.90;;;;;;5108813;28;20043;-63
2022/01/20 10:23:54;;;;;;;11.32;2.25;;;3.80;99.90;;;;;;5099703;27;20047;-63
2022/01/20 10:26:24;;;;;;;7.72;1.40;;;3.90;99.90;;;;;;5105881;28;20154;-64
2022/01/20 10:28:52;;;;;;;8.48;1.92;;;4.00;99.90;;;;;;5104877;27;20078;-63
2022/01/20 10:31:46;;;;;;;12.40;2.78;;;3.90;99.90;;;;;;5106740;28;20111;-62
2022/01/20 10:34:34;;;;;;;14.25;2.72;;;4.00;99.90;;;;;;5109713;27;20051;-62
2022/01/20 10:37:14;;;;;;;9.20;2.22;;;4.20;99.90;;;;;;5115231;28;20042;-62
2022/01/20 10:39:46;;;;;;;16.70;2.30;;;4.40;99.90;;;;;;5122264;27;20055;-62
2022/01/20 10:42:15;;;;;;;14.05;2.20;;;4.70;99.90;;;;;;5101106;28;20083;-63
2022/01/20 10:44:56;;;;;;;13.07;2.55;;;4.70;99.90;;;;;;5109461;27;20047;-65
2022/01/20 10:47:24;;;;;;;13.30;1.73;;;4.70;99.90;;;;;;5098096;28;20071;-63
2022/01/20 10:49:50;;;;;;;11.90;3.10;;;4.70;99.90;;;;;;5108818;27;20047;-62
2022/01/20 10:52:22;;;;;;;11.18;2.38;;;4.60;99.90;;;;;;5101420;28;20051;-62
2022/01/20 10:54:56;;;;;;;16.50;2.05;;;4.60;99.90;;;;;;5127965;27;20119;-63
2022/01/20 10:57:28;;;;;;;14.02;2.35;;;4.50;99.90;;;;;;5098479;28;20146;-62
2022/01/20 11:00:10;;;;;;;13.57;1.85;;;4.50;99.90;;;;;;5128191;27;20410;-62
2022/01/20 11:02:36;;;;;;;10.98;2.28;;;4.60;99.90;;;;;;5093142;28;20070;-63
2022/01/20 11:05:02;;;;;;;16.63;2.85;;;4.70;99.90;;;;;;5114202;28;20503;-63
2022/01/20 11:07:28;;;;;;;14.43;2.38;;;4.70;99.90;;;;;;5121531;28;20043;-63
2022/01/20 11:10:06;;;;;;;14.48;3.05;;;4.60;99.90;;;;;;5128107;27;20066;-63
2022/01/20 11:12:34;;;;;;;14.02;2.45;;;4.50;99.90;;;;;;5098894;28;20059;-63
2022/01/20 11:15:00;;;;;;;15.60;2.13;;;4.40;99.90;;;;;;5073615;28;20528;-63
2022/01/20 11:17:30;;;;;;;9.80;2.00;;;4.50;99.90;;;;;;5100270;28;20043;-63
2022/01/20 11:20:03;;;;;;;8.38;1.65;;;4.40;99.90;;;;;;5122617;27;20044;-63
2022/01/20 11:22:28;;;;;;;11.80;2.15;;;4.40;99.90;;;;;;5117769;28;20107;-62
2022/01/20 11:25:00;;;;;;;12.27;1.92;;;4.50;99.90;;;;;;5106801;27;20074;-63
2022/01/20 11:27:43;;;;;;;10.15;1.92;;;4.70;99.90;;;;;;5100471;28;20062;-63
2022/01/20 11:30:21;;;;;;;11.18;2.08;;;4.90;99.90;;;;;;5089262;28;20566;-62
2022/01/20 11:33:00;;;;;;;12.32;3.10;;;4.90;99.90;;;;;;5089806;27;20039;-63
2022/01/20 11:35:49;;;;;;;12.02;2.15;;;4.90;99.90;;;;;;5110083;27;20118;-63
2022/01/20 11:38:18;;;;;;;12.73;2.08;;;5.10;99.90;;;;;;5095982;27;20622;-63
2022/01/20 11:40:56;;;;;;;12.38;2.22;;;5.10;99.90;;;;;;5130998;27;20050;-63
2022/01/20 11:43:40;;;;;;;10.48;1.90;;;5.20;99.90;;;;;;5111276;27;20050;-63
2022/01/20 11:46:13;;;;;;;10.93;2.13;;;5.60;99.90;;;;;;5123702;27;20115;-63
2022/01/20 11:48:56;;;;;;;13.68;2.92;;;5.60;99.90;;;;;;5116094;27;20051;-63
2022/01/20 11:51:41;;;;;;;12.80;2.25;;;5.60;99.90;;;;;;5104607;28;20512;-63
2022/01/20 11:54:08;;;;;;;10.57;2.50;;;5.20;99.90;;;;;;5121098;27;20075;-63
2022/01/20 11:56:36;;;;;;;12.52;2.28;;;4.70;99.90;;;;;;5125154;27;20134;-63
2022/01/20 11:59:04;;;;;;;12.32;2.35;;;4.60;99.90;;;;;;5119055;27;20047;-62
2022/01/20 12:01:41;;;;;;;15.60;2.75;;;4.60;99.90;;;;;;5123891;27;20051;-62
2022/01/20 12:04:07;;;;;;;11.57;2.83;;;4.70;99.90;;;;;;5102886;27;20050;-62
2022/01/20 12:06:46;;;;;;;11.07;2.55;;;5.00;99.90;;;;;;5124286;27;20333;-63
2022/01/20 12:09:13;;;;;;;18.75;2.70;;;5.20;99.90;;;;;;5101347;27;20353;-62
2022/01/20 12:11:46;;;;;;;8.60;1.88;;;5.10;99.90;;;;;;5120962;27;20124;-62
2022/01/20 12:14:14;;;;;;;11.77;2.28;;;4.40;99.90;;;;;;5102264;27;20047;-62
2022/01/20 12:16:41;;;;;;;8.60;2.00;;;4.00;99.90;;;;;;5121203;27;20047;-62
2022/01/20 12:19:09;;;;;;;10.30;2.15;;;3.80;99.90;;;;;;5115612;27;20051;-62
2022/01/20 12:21:36;;;;;;;5.90;1.83;;;3.70;99.90;;;;;;5124527;27;20243;-63
2022/01/20 12:24:03;;;;;;;11.13;1.92;;;3.60;99.90;;;;;;5120758;27;20142;-63
2022/01/20 12:26:35;;;;;;;13.20;2.25;;;3.80;99.90;;;;;;5125297;27;20032;-63
2022/01/20 12:29:07;;;;;;;13.00;1.90;;;3.90;99.90;;;;;;5101002;27;20051;-63
2022/01/20 12:31:54;;;;;;;8.43;2.15;;;4.10;99.90;;;;;;5104709;28;20058;-62
2022/01/20 12:34:21;;;;;;;10.65;2.33;;;4.20;99.90;;;;;;5096759;27;20047;-63
2022/01/20 12:36:55;;;;;;;11.25;2.08;;;4.20;99.90;;;;;;5120464;27;20459;-63
2022/01/20 12:39:22;;;;;;;13.15;3.50;;;4.40;99.90;;;;;;5103891;27;20047;-63
2022/01/20 12:41:57;;;;;;;17.25;2.50;;;4.30;99.90;;;;;;5122645;27;20051;-62
2022/01/20 12:44:23;;;;;;;15.70;3.08;;;4.50;99.90;;;;;;5119047;27;20055;-63
2022/01/20 12:46:49;;;;;;;11.98;2.35;;;4.60;99.90;;;;;;5101102;28;20476;-62
2022/01/20 12:49:17;;;;;;;8.10;1.73;;;4.70;99.90;;;;;;5102201;27;20073;-62
2022/01/20 12:51:53;;;;;;;9.60;2.08;;;4.80;99.90;;;;;;5102197;28;20082;-62
2022/01/20 12:54:30;;;;;;;10.15;2.08;;;5.10;99.90;;;;;;5114283;27;20059;-63
2022/01/20 12:57:08;;;;;;;14.98;3.50;;;5.20;99.90;;;;;;5103607;28;20047;-63
2022/01/20 12:59:37;;;;;;;12.70;2.50;;;5.30;99.90;;;;;;5097967;27;20100;-63
2022/01/20 13:02:33;;;;;;;13.40;3.05;;;5.30;99.90;;;;;;5099822;28;20118;-62
2022/01/20 13:05:01;;;;;;;14.27;2.72;;;5.10;99.90;;;;;;5124807;27;20047;-63
2022/01/20 13:07:29;;;;;;;18.48;3.90;;;5.20;99.90;;;;;;5100444;28;20043;-63
2022/01/20 13:10:04;;;;;;;10.90;2.17;;;5.00;99.90;;;;;;5128913;27;20107;-63
2022/01/20 13:12:35;;;;;;;12.50;2.10;;;5.10;99.90;;;;;;5107190;28;20048;-63
2022/01/20 13:15:03;;;;;;;13.40;1.83;;;5.30;99.90;;;;;;5104957;27;20047;-63
2022/01/20 13:17:34;;;;;;;14.13;1.95;;;5.30;99.90;;;;;;5095440;28;20047;-63
2022/01/20 13:20:11;;;;;;;16.65;2.40;;;5.20;99.90;;;;;;5077075;27;20043;-63
2022/01/20 13:22:57;;;;;;;15.45;2.30;;;5.40;99.90;;;;;;5111388;28;20044;-63
2022/01/20 13:25:29;;;;;;;12.35;2.20;;;5.40;99.90;;;;;;5102392;28;20048;-63
2022/01/20 13:28:01;;;;;;;11.27;2.10;;;5.60;99.90;;;;;;5109288;27;20078;-63
2022/01/20 13:30:40;;;;;;;13.80;2.38;;;5.80;99.90;;;;;;5097232;28;20074;-63
2022/01/20 13:33:27;;;;;;;17.38;3.35;;;5.90;99.90;;;;;;5082380;27;20047;-63
2022/01/20 13:36:01;;;;;;;15.50;1.95;;;6.00;99.90;;;;;;5099878;28;20127;-63
2022/01/20 13:38:31;;;;;;;11.35;2.45;;;6.10;99.90;;;;;;5117043;27;20052;-63
2022/01/20 13:41:08;;;;;;;12.70;2.30;;;6.30;99.90;;;;;;5109362;28;20044;-63
2022/01/20 13:46:30;;;;;;;9.23;2.13;;;5.70;99.90;;;;;;5120970;27;20605;-63
2022/01/20 13:49:21;;;;;;;5.53;1.35;;;5.30;99.90;;;;;;5115788;27;20070;-63
2022/01/20 13:51:56;;;;;;;7.13;1.70;;;5.10;99.90;;;;;;5099004;28;20070;-63
2022/01/20 13:54:22;;;;;;;7.35;1.48;;;4.90;99.90;;;;;;5093365;28;20039;-62
2022/01/20 13:56:52;;;;;;;5.85;1.35;;;4.60;99.90;;;;;;5121277;27;20070;-62
2022/01/20 13:59:18;;;;;;;7.40;1.35;;;4.60;99.90;;;;;;5098262;27;20057;-62